createdAt,value
2018-05-18T00:01:43.916Z,99.90
2018-05-18T00:04:10.169Z,99.90
2018-05-18T00:06:36.404Z,99.90
2018-05-18T00:09:02.691Z,99.90
2018-05-18T00:11:28.914Z,99.90
2018-05-18T00:13:55.144Z,99.90
2018-05-18T00:16:21.386Z,99.90
2018-05-18T00:18:47.646Z,99.90
2018-05-18T00:21:13.885Z,99.90
2018-05-18T00:23:40.126Z,99.90
2018-05-18T00:26:06.370Z,99.90
2018-05-18T00:28:32.824Z,99.90
2018-05-18T00:30:59.779Z,99.90
2018-05-18T00:33:26.016Z,99.90
2018-05-18T00:35:53.006Z,99.90
2018-05-18T00:38:19.226Z,99.90
2018-05-18T00:40:46.239Z,99.90
2018-05-18T00:43:12.457Z,99.90
2018-05-18T00:45:38.679Z,99.90
2018-05-18T00:48:04.937Z,99.90
2018-05-18T00:50:31.149Z,99.90
2018-05-18T00:53:05.043Z,99.90
2018-05-18T00:55:39.253Z,99.90
2018-05-18T00:58:05.492Z,99.90
2018-05-18T01:00:31.723Z,99.90
2018-05-18T01:02:57.957Z,99.90
2018-05-18T01:05:24.161Z,99.90
2018-05-18T01:07:51.114Z,99.90
2018-05-18T01:10:18.101Z,99.90
2018-05-18T01:12:44.322Z,99.90
2018-05-18T01:15:11.305Z,99.90
2018-05-18T01:17:37.528Z,99.90
2018-05-18T01:20:03.797Z,99.90
2018-05-18T01:22:30.060Z,99.90
2018-05-18T01:24:56.304Z,99.90
2018-05-18T01:27:22.545Z,99.90
2018-05-18T01:29:49.101Z,99.90
2018-05-18T01:32:15.348Z,99.90
2018-05-18T01:34:41.575Z,99.90
2018-05-18T01:37:07.792Z,99.90
2018-05-18T01:39:34.039Z,99.90
2018-05-18T01:42:00.273Z,99.90
2018-05-18T01:44:26.488Z,99.90
2018-05-18T01:46:52.730Z,99.90
2018-05-18T01:49:18.939Z,99.90
2018-05-18T01:51:45.928Z,99.90
2018-05-18T01:54:12.160Z,99.90
2018-05-18T01:56:38.376Z,99.90
2018-05-18T01:59:05.350Z,99.90
2018-05-18T02:01:32.342Z,99.90
2018-05-18T02:03:58.583Z,99.90
2018-05-18T02:06:24.795Z,99.90
2018-05-18T02:08:51.016Z,99.90
2018-05-18T02:11:17.976Z,99.90
2018-05-18T02:13:44.936Z,99.90
2018-05-18T02:16:11.912Z,99.90
2018-05-18T02:18:38.141Z,99.90
2018-05-18T02:21:05.117Z,99.90
2018-05-18T02:23:31.387Z,99.90
2018-05-18T02:25:57.606Z,99.90
2018-05-18T02:28:23.826Z,99.90
2018-05-18T02:30:50.922Z,99.90
2018-05-18T02:33:17.888Z,99.90
2018-05-18T02:35:44.114Z,99.90
2018-05-18T02:38:10.338Z,99.90
2018-05-18T02:40:36.556Z,99.90
2018-05-18T02:43:03.525Z,99.90
2018-05-18T02:45:29.786Z,99.90
2018-05-18T02:47:56.006Z,99.90
2018-05-18T02:50:22.254Z,99.90
2018-05-18T02:52:48.504Z,99.90
2018-05-18T02:55:14.736Z,99.90
2018-05-18T02:57:40.955Z,99.90
2018-05-18T03:00:07.934Z,99.90
2018-05-18T03:02:34.149Z,99.90
2018-05-18T03:05:01.109Z,99.90
2018-05-18T03:07:28.110Z,99.90
2018-05-18T03:09:54.339Z,99.90
2018-05-18T03:12:20.588Z,99.90
2018-05-18T03:14:46.835Z,99.90
2018-05-18T03:17:13.047Z,99.90
2018-05-18T03:19:39.273Z,99.90
2018-05-18T03:22:06.305Z,99.90
2018-05-18T03:24:32.531Z,99.90
2018-05-18T03:27:01.665Z,99.90
2018-05-18T03:29:28.645Z,99.90
2018-05-18T03:31:55.715Z,99.90
2018-05-18T03:34:21.975Z,99.90
2018-05-18T03:36:48.216Z,99.90
2018-05-18T03:39:14.448Z,99.90
2018-05-18T03:41:40.675Z,99.90
2018-05-18T03:44:06.918Z,99.90
2018-05-18T03:46:33.160Z,99.90
2018-05-18T03:48:59.373Z,99.90
2018-05-18T03:51:26.361Z,99.90
2018-05-18T03:53:52.587Z,99.90
2018-05-18T03:56:19.552Z,99.90
2018-05-18T03:58:45.780Z,99.90
2018-05-18T04:01:18.666Z,99.90
2018-05-18T04:03:57.103Z,99.90
2018-05-18T04:06:36.120Z,99.90
2018-05-18T04:09:02.420Z,99.90
2018-05-18T04:11:28.630Z,99.90
2018-05-18T04:13:55.720Z,99.90
2018-05-18T04:16:21.960Z,99.90
2018-05-18T04:18:48.194Z,99.90
2018-05-18T04:21:14.460Z,99.90
2018-05-18T04:23:40.710Z,99.90
2018-05-18T04:26:07.682Z,99.90
2018-05-18T04:28:33.921Z,99.90
2018-05-18T04:31:00.198Z,99.90
2018-05-18T04:33:27.173Z,99.90
2018-05-18T04:35:53.518Z,99.90
2018-05-18T04:38:19.746Z,99.90
2018-05-18T04:40:45.974Z,99.90
2018-05-18T04:43:12.976Z,99.90
2018-05-18T04:45:39.214Z,99.90
2018-05-18T04:48:05.430Z,99.90
2018-05-18T04:50:31.679Z,99.90
2018-05-18T04:52:57.911Z,99.90
2018-05-18T04:55:24.140Z,99.90
2018-05-18T04:57:51.091Z,99.90
2018-05-18T05:00:18.100Z,99.90
2018-05-18T05:02:44.331Z,99.90
2018-05-18T05:05:10.579Z,99.90
2018-05-18T05:07:37.004Z,99.90
2018-05-18T05:10:03.252Z,99.90
2018-05-18T05:12:29.551Z,99.90
2018-05-18T05:14:55.787Z,99.90
2018-05-18T05:17:22.761Z,99.90
2018-05-18T05:19:49.711Z,99.90
2018-05-18T05:22:16.024Z,99.90
2018-05-18T05:24:42.248Z,99.90
2018-05-18T05:27:08.485Z,99.90
2018-05-18T05:29:34.733Z,99.90
2018-05-18T05:32:01.415Z,99.90
2018-05-18T05:34:27.655Z,99.90
2018-05-18T05:36:54.653Z,99.90
2018-05-18T05:39:20.989Z,99.90
2018-05-18T05:41:47.249Z,99.90
2018-05-18T05:44:13.508Z,99.90
2018-05-18T05:46:39.747Z,99.90
2018-05-18T05:49:05.970Z,99.90
2018-05-18T05:51:32.213Z,99.90
2018-05-18T05:53:58.441Z,99.90
2018-05-18T05:56:24.665Z,99.90
2018-05-18T05:58:50.922Z,99.90
2018-05-18T06:01:17.153Z,99.90
2018-05-18T06:03:43.386Z,99.90
2018-05-18T06:06:09.649Z,99.90
2018-05-18T06:08:35.861Z,99.90
2018-05-18T06:11:02.089Z,99.90
2018-05-18T06:13:29.104Z,99.90
2018-05-18T06:15:55.343Z,99.90
2018-05-18T06:18:21.558Z,99.90
2018-05-18T06:20:48.055Z,99.90
2018-05-18T06:23:14.410Z,99.90
2018-05-18T06:25:40.626Z,99.90
2018-05-18T06:28:06.891Z,99.90
2018-05-18T06:30:33.867Z,99.90
2018-05-18T06:33:00.996Z,99.90
2018-05-18T06:35:27.455Z,99.90
2018-05-18T06:37:53.703Z,99.90
2018-05-18T06:40:20.662Z,99.90
2018-05-18T06:42:46.902Z,99.90
2018-05-18T06:45:13.872Z,99.90
2018-05-18T06:47:40.101Z,99.90
2018-05-18T06:50:07.115Z,99.90
2018-05-18T06:52:33.365Z,99.90
2018-05-18T06:54:59.559Z,99.90
2018-05-18T06:57:25.798Z,99.90
2018-05-18T06:59:52.016Z,99.60
2018-05-18T07:02:19.008Z,99.40
2018-05-18T07:04:45.244Z,99.40
2018-05-18T07:07:11.448Z,99.40
2018-05-18T07:09:37.675Z,98.90
2018-05-18T07:12:03.929Z,98.20
2018-05-18T07:14:30.164Z,98.20
2018-05-18T07:16:56.374Z,98.20
2018-05-18T07:19:22.625Z,98.20
2018-05-18T07:21:48.864Z,97.80
2018-05-18T07:24:15.081Z,98.20
2018-05-18T07:26:41.314Z,98.30
2018-05-18T07:29:07.542Z,98.20
2018-05-18T07:31:33.780Z,98.10
2018-05-18T07:34:00.164Z,98.20
2018-05-18T07:36:26.390Z,97.80
2018-05-18T07:38:52.606Z,97.30
2018-05-18T07:41:18.838Z,97.40
2018-05-18T07:43:45.143Z,97.30
2018-05-18T07:46:11.282Z,97.50
2018-05-18T07:48:37.540Z,97.60
2018-05-18T07:51:04.518Z,96.60
2018-05-18T07:53:31.573Z,96.70
2018-05-18T07:55:57.697Z,96.70
2018-05-18T07:58:23.933Z,96.00
2018-05-18T08:00:50.163Z,96.20
2018-05-18T08:03:16.387Z,96.20
2018-05-18T08:05:42.637Z,96.50
2018-05-18T08:08:08.839Z,96.30
2018-05-18T08:10:35.073Z,95.80
2018-05-18T08:13:01.291Z,95.70
2018-05-18T08:15:28.876Z,95.80
2018-05-18T08:17:55.865Z,95.40
2018-05-18T08:20:22.081Z,95.40
2018-05-18T08:22:48.315Z,95.30
2018-05-18T08:25:14.604Z,94.90
2018-05-18T08:27:40.926Z,94.90
2018-05-18T08:30:07.106Z,95.00
2018-05-18T08:32:33.378Z,94.70
2018-05-18T08:34:59.628Z,94.60
2018-05-18T08:37:25.836Z,93.40
2018-05-18T08:39:52.088Z,93.20
2018-05-18T08:42:19.054Z,93.40
2018-05-18T08:44:45.292Z,93.40
2018-05-18T08:47:12.254Z,93.00
2018-05-18T08:49:38.469Z,93.00
2018-05-18T08:52:04.689Z,93.10
2018-05-18T08:54:30.922Z,91.60
2018-05-18T08:56:57.142Z,91.60
2018-05-18T08:59:23.357Z,91.90
2018-05-18T09:01:50.411Z,90.80
2018-05-18T09:04:16.622Z,90.80
2018-05-18T09:06:42.852Z,90.80
2018-05-18T09:09:09.081Z,90.30
2018-05-18T09:11:35.309Z,89.40
2018-05-18T09:14:01.585Z,89.50
2018-05-18T09:16:27.947Z,88.40
2018-05-18T09:18:54.234Z,88.80
2018-05-18T09:21:20.528Z,88.50
2018-05-18T09:23:47.612Z,87.70
2018-05-18T09:26:13.906Z,87.60
2018-05-18T09:28:40.184Z,85.30
2018-05-18T09:31:06.494Z,85.60
2018-05-18T09:33:32.744Z,85.80
2018-05-18T09:35:58.992Z,86.10
2018-05-18T09:38:25.270Z,84.60
2018-05-18T09:40:51.494Z,84.30
2018-05-18T09:43:18.458Z,85.90
2018-05-18T09:45:44.706Z,85.90
2018-05-18T09:48:10.913Z,85.60
2018-05-18T09:50:37.114Z,83.40
2018-05-18T09:53:03.348Z,83.20
2018-05-18T09:55:29.866Z,81.80
2018-05-18T09:57:55.842Z,81.00
2018-05-18T10:00:22.074Z,80.20
2018-05-18T10:02:48.304Z,78.70
2018-05-18T10:05:14.513Z,78.40
2018-05-18T10:07:40.778Z,75.30
2018-05-18T10:10:07.010Z,73.90
2018-05-18T10:12:33.209Z,73.90
2018-05-18T10:14:59.437Z,73.30
2018-05-18T10:17:25.654Z,73.30
2018-05-18T10:19:51.866Z,71.60
2018-05-18T10:22:18.120Z,72.10
2018-05-18T10:24:44.354Z,72.80
2018-05-18T10:27:10.590Z,73.10
2018-05-18T10:29:36.847Z,72.90
2018-05-18T10:32:03.093Z,73.20
2018-05-18T10:34:29.322Z,72.00
2018-05-18T10:36:55.573Z,70.40
2018-05-18T10:39:21.794Z,69.20
2018-05-18T10:41:48.031Z,70.40
2018-05-18T10:44:14.310Z,72.50
2018-05-18T10:46:40.571Z,74.30
2018-05-18T10:49:06.819Z,74.00
2018-05-18T10:51:33.050Z,72.40
2018-05-18T10:53:59.279Z,71.50
2018-05-18T10:56:25.494Z,72.20
2018-05-18T10:58:51.721Z,70.40
2018-05-18T11:01:17.969Z,69.30
2018-05-18T11:03:44.222Z,68.30
2018-05-18T11:06:10.476Z,67.10
2018-05-18T11:08:36.701Z,67.20
2018-05-18T11:11:02.914Z,67.30
2018-05-18T11:13:29.158Z,67.80
2018-05-18T11:15:55.354Z,67.80
2018-05-18T11:18:21.565Z,66.90
2018-05-18T11:20:47.810Z,65.50
2018-05-18T11:23:14.064Z,62.90
2018-05-18T11:25:40.282Z,63.10
2018-05-18T11:28:06.494Z,62.70
2018-05-18T11:30:32.704Z,62.30
2018-05-18T11:32:59.047Z,62.70
2018-05-18T11:35:25.305Z,62.50
2018-05-18T11:37:51.558Z,62.90
2018-05-18T11:40:17.793Z,62.70
2018-05-18T11:42:44.117Z,62.50
2018-05-18T11:45:11.105Z,62.70
2018-05-18T11:47:37.366Z,62.00
2018-05-18T11:50:04.394Z,59.40
2018-05-18T11:52:30.628Z,59.30
2018-05-18T11:54:57.598Z,57.00
2018-05-18T11:57:23.847Z,57.00
2018-05-18T11:59:50.066Z,56.00
2018-05-18T12:02:16.264Z,54.70
2018-05-18T12:04:42.515Z,53.80
2018-05-18T12:07:08.733Z,55.10
2018-05-18T12:09:34.973Z,55.60
2018-05-18T12:12:01.211Z,57.70
2018-05-18T12:14:27.450Z,57.50
2018-05-18T12:16:53.678Z,56.90
2018-05-18T12:19:19.956Z,55.10
2018-05-18T12:21:46.196Z,54.10
2018-05-18T12:24:12.432Z,53.30
2018-05-18T12:26:38.670Z,51.40
2018-05-18T12:29:04.929Z,52.20
2018-05-18T12:31:31.176Z,49.90
2018-05-18T12:33:57.512Z,48.50
2018-05-18T12:36:23.754Z,49.10
2018-05-18T12:38:49.987Z,48.30
2018-05-18T12:41:16.214Z,47.00
2018-05-18T12:43:42.443Z,46.70
2018-05-18T12:46:08.662Z,46.50
2018-05-18T12:48:34.934Z,46.80
2018-05-18T12:51:01.340Z,47.10
2018-05-18T12:53:27.573Z,45.70
2018-05-18T12:55:53.847Z,45.30
2018-05-18T12:58:20.091Z,45.80
2018-05-18T13:00:46.293Z,47.50
2018-05-18T13:03:12.564Z,48.50
2018-05-18T13:05:38.798Z,48.30
2018-05-18T13:08:05.030Z,49.00
2018-05-18T13:10:31.637Z,50.40
2018-05-18T13:12:57.859Z,50.80
2018-05-18T13:15:24.085Z,51.10
2018-05-18T13:17:50.347Z,50.30
2018-05-18T13:20:16.608Z,49.80
2018-05-18T13:22:43.582Z,47.70
2018-05-18T13:25:09.892Z,47.70
2018-05-18T13:27:36.124Z,45.70
2018-05-18T13:30:02.360Z,44.40
2018-05-18T13:32:28.637Z,43.30
2018-05-18T13:34:54.871Z,42.20
2018-05-18T13:37:21.854Z,43.80
2018-05-18T13:39:48.141Z,43.70
2018-05-18T13:42:14.369Z,44.80
2018-05-18T13:44:40.609Z,45.80
2018-05-18T13:47:06.869Z,48.20
2018-05-18T13:49:33.095Z,48.20
2018-05-18T13:51:59.330Z,46.40
2018-05-18T13:54:25.575Z,45.40
2018-05-18T13:56:51.792Z,44.20
2018-05-18T13:59:18.014Z,43.60
2018-05-18T14:01:44.270Z,44.10
2018-05-18T14:04:10.500Z,42.60
2018-05-18T14:06:36.742Z,43.60
2018-05-18T14:09:03.064Z,44.50
2018-05-18T14:11:29.277Z,46.00
2018-05-18T14:13:55.540Z,46.20
2018-05-18T14:16:21.776Z,45.60
2018-05-18T14:18:47.983Z,45.50
2018-05-18T14:21:14.199Z,46.00
2018-05-18T14:23:40.456Z,47.10
2018-05-18T14:26:06.705Z,47.00
2018-05-18T14:28:32.945Z,47.30
2018-05-18T14:30:59.949Z,47.10
2018-05-18T14:33:26.982Z,45.80
2018-05-18T14:35:53.205Z,45.80
2018-05-18T14:38:19.480Z,46.40
2018-05-18T14:40:46.446Z,46.70
2018-05-18T14:43:13.425Z,45.30
2018-05-18T14:45:39.670Z,45.30
2018-05-18T14:48:05.888Z,44.20
2018-05-18T14:50:32.885Z,42.80
2018-05-18T14:52:59.175Z,42.80
2018-05-18T14:55:26.157Z,43.30
2018-05-18T14:57:52.397Z,43.30
2018-05-18T15:00:18.663Z,43.90
2018-05-18T15:02:44.904Z,44.00
2018-05-18T15:05:11.175Z,43.60
2018-05-18T15:07:37.522Z,43.40
2018-05-18T15:10:03.775Z,44.20
2018-05-18T15:12:29.993Z,44.20
2018-05-18T15:14:56.251Z,44.60
2018-05-18T15:17:22.463Z,44.30
2018-05-18T15:19:48.683Z,43.30
2018-05-18T15:22:14.931Z,42.80
2018-05-18T15:24:41.886Z,42.00
2018-05-18T15:27:08.155Z,42.00
2018-05-18T15:29:34.412Z,42.30
2018-05-18T15:32:00.666Z,41.20
2018-05-18T15:34:27.645Z,41.60
2018-05-18T15:36:53.920Z,41.60
2018-05-18T15:39:20.159Z,42.10
2018-05-18T15:41:46.428Z,42.20
2018-05-18T15:44:12.677Z,42.40
2018-05-18T15:46:38.939Z,42.00
2018-05-18T15:49:05.234Z,41.20
2018-05-18T15:51:31.479Z,40.60
2018-05-18T15:53:57.713Z,40.70
2018-05-18T15:56:23.943Z,41.20
2018-05-18T15:58:50.193Z,41.50
2018-05-18T16:01:16.404Z,41.90
2018-05-18T16:03:42.659Z,42.10
2018-05-18T16:06:08.896Z,42.20
2018-05-18T16:08:35.140Z,42.50
2018-05-18T16:11:01.362Z,43.90
2018-05-18T16:13:27.707Z,44.00
2018-05-18T16:15:53.938Z,44.10
2018-05-18T16:18:20.173Z,43.60
2018-05-18T16:20:46.407Z,43.40
2018-05-18T16:23:13.404Z,43.60
2018-05-18T16:25:39.656Z,43.60
2018-05-18T16:28:05.934Z,42.20
2018-05-18T16:30:32.201Z,42.50
2018-05-18T16:32:58.428Z,42.60
2018-05-18T16:35:25.430Z,43.00
2018-05-18T16:37:51.668Z,43.00
2018-05-18T16:40:17.898Z,42.40
2018-05-18T16:42:44.150Z,42.70
2018-05-18T16:45:10.378Z,42.30
2018-05-18T16:47:36.636Z,42.20
2018-05-18T16:50:02.906Z,42.70
2018-05-18T16:52:29.124Z,43.40
2018-05-18T16:54:56.146Z,42.70
2018-05-18T16:57:22.429Z,42.60
2018-05-18T16:59:48.655Z,42.30
2018-05-18T17:02:15.626Z,43.40
2018-05-18T17:04:42.638Z,43.90
2018-05-18T17:07:08.874Z,43.90
2018-05-18T17:09:35.846Z,44.90
2018-05-18T17:12:02.848Z,46.40
2018-05-18T17:14:29.069Z,46.40
2018-05-18T17:16:55.293Z,46.70
2018-05-18T17:19:21.643Z,47.30
2018-05-18T17:21:47.865Z,48.20
2018-05-18T17:24:14.091Z,48.90
2018-05-18T17:26:41.082Z,50.80
2018-05-18T17:29:07.325Z,50.70
2018-05-18T17:31:33.595Z,52.30
2018-05-18T17:33:59.839Z,53.30
2018-05-18T17:36:26.069Z,53.00
2018-05-18T17:38:52.290Z,53.60
2018-05-18T17:41:18.549Z,53.90
2018-05-18T17:43:44.822Z,54.50
2018-05-18T17:46:11.839Z,54.70
2018-05-18T17:48:38.131Z,54.70
2018-05-18T17:51:05.119Z,55.40
2018-05-18T17:53:31.358Z,55.40
2018-05-18T17:55:57.614Z,55.80
2018-05-18T17:58:23.847Z,55.80
2018-05-18T18:00:50.076Z,56.10
2018-05-18T18:03:16.361Z,56.40
2018-05-18T18:05:42.585Z,57.20
2018-05-18T18:08:08.868Z,57.70
2018-05-18T18:10:35.850Z,59.00
2018-05-18T18:13:02.091Z,58.90
2018-05-18T18:15:28.542Z,59.50
2018-05-18T18:17:54.778Z,60.10
2018-05-18T18:20:21.008Z,60.90
2018-05-18T18:22:47.255Z,61.60
2018-05-18T18:25:13.615Z,62.20
2018-05-18T18:27:39.846Z,62.50
2018-05-18T18:30:06.134Z,62.90
2018-05-18T18:34:56.968Z,64.00
2018-05-18T18:37:23.204Z,64.50
2018-05-18T18:39:49.469Z,65.10
2018-05-18T18:42:15.702Z,65.60
2018-05-18T18:44:42.112Z,65.50
2018-05-18T18:47:08.378Z,65.90
2018-05-18T18:49:34.685Z,66.40
2018-05-18T18:52:00.986Z,66.30
2018-05-18T18:54:27.205Z,66.90
2018-05-18T18:56:53.493Z,67.40
2018-05-18T18:59:20.450Z,69.10
2018-05-18T19:01:46.683Z,69.10
2018-05-18T19:04:13.029Z,69.90
2018-05-18T19:06:40.025Z,71.80
2018-05-18T19:09:06.301Z,71.80
2018-05-18T19:11:32.676Z,72.40
2018-05-18T19:13:59.663Z,74.00
2018-05-18T19:16:25.927Z,74.00
2018-05-18T19:18:52.206Z,74.90
2018-05-18T19:21:19.215Z,76.70
2018-05-18T19:23:45.458Z,76.60
2018-05-18T19:26:11.828Z,77.70
2018-05-18T19:28:38.123Z,78.20
2018-05-18T19:31:04.398Z,78.60
2018-05-18T19:33:30.675Z,79.40
2018-05-18T19:35:56.936Z,81.10
2018-05-18T19:38:23.182Z,82.20
2018-05-18T19:40:49.471Z,83.80
2018-05-18T19:43:15.751Z,85.00
2018-05-18T19:45:42.270Z,85.70
2018-05-18T19:48:08.575Z,86.00
2018-05-18T19:50:34.893Z,86.60
2018-05-18T19:53:01.189Z,87.40
2018-05-18T19:55:27.475Z,88.00
2018-05-18T19:57:53.743Z,88.50
2018-05-18T20:00:20.061Z,88.80
2018-05-18T20:02:53.436Z,88.60
2018-05-18T20:05:19.717Z,88.00
2018-05-18T20:07:45.991Z,87.90
2018-05-18T20:10:19.198Z,86.80
2018-05-18T20:12:45.510Z,85.90
2018-05-18T20:15:11.768Z,85.50
2018-05-18T20:17:38.073Z,85.70
2018-05-18T20:20:04.372Z,85.80
2018-05-18T20:22:30.624Z,85.80
2018-05-18T20:24:56.914Z,86.40
2018-05-18T20:27:23.166Z,86.90
2018-05-18T20:29:49.422Z,87.10
2018-05-18T20:32:15.707Z,87.10
2018-05-18T20:34:42.736Z,87.10
2018-05-18T20:37:08.986Z,87.10
2018-05-18T20:39:35.250Z,87.50
2018-05-18T20:42:02.250Z,88.40
2018-05-18T20:44:28.526Z,88.30
2018-05-18T20:46:54.904Z,88.80
2018-05-18T20:49:21.880Z,88.70
2018-05-18T20:51:48.206Z,88.70
2018-05-18T20:54:14.392Z,89.10
2018-05-18T20:56:40.788Z,88.90
2018-05-18T20:59:07.027Z,89.10
2018-05-18T21:01:34.027Z,89.00
2018-05-18T21:04:00.261Z,88.90
2018-05-18T21:06:26.483Z,89.00
2018-05-18T21:08:52.731Z,89.10
2018-05-18T21:11:18.965Z,89.80
2018-05-18T21:13:45.221Z,90.50
2018-05-18T21:16:11.469Z,90.70
2018-05-18T21:18:37.707Z,90.90
2018-05-18T21:21:03.930Z,91.00
2018-05-18T21:23:30.188Z,91.10
2018-05-18T21:25:56.424Z,91.30
2018-05-18T21:28:22.645Z,91.50
2018-05-18T21:30:48.898Z,91.70
2018-05-18T21:33:15.173Z,91.90
2018-05-18T21:35:41.432Z,92.10
2018-05-18T21:38:07.691Z,92.20
2018-05-18T21:40:33.947Z,92.40
2018-05-18T21:43:00.175Z,92.80
2018-05-18T21:45:27.213Z,92.30
2018-05-18T21:47:53.561Z,92.30
2018-05-18T21:50:20.536Z,92.40
2018-05-18T21:52:46.789Z,92.30
2018-05-18T21:55:13.006Z,92.30
2018-05-18T21:57:39.974Z,92.20
2018-05-18T22:00:06.213Z,92.20
2018-05-18T22:02:33.179Z,92.30
2018-05-18T22:04:59.403Z,92.30
2018-05-18T22:07:26.393Z,92.50
2018-05-18T22:09:52.638Z,92.40
2018-05-18T22:12:18.875Z,92.40
2018-05-18T22:14:45.098Z,92.60
2018-05-18T22:17:11.345Z,92.80
2018-05-18T22:19:37.575Z,92.70
2018-05-18T22:22:03.868Z,92.70
2018-05-18T22:24:30.103Z,92.70
2018-05-18T22:26:56.336Z,92.60
2018-05-18T22:29:22.578Z,92.70
2018-05-18T22:31:48.820Z,92.80
2018-05-18T22:34:15.098Z,92.90
2018-05-18T22:36:41.336Z,93.00
2018-05-18T22:39:07.570Z,93.00
2018-05-18T22:41:33.819Z,93.10
2018-05-18T22:44:00.080Z,93.10
2018-05-18T22:46:27.062Z,93.20
2018-05-18T22:48:53.806Z,93.20
2018-05-18T22:51:20.054Z,93.30
2018-05-18T22:53:46.305Z,93.50
2018-05-18T22:56:12.524Z,93.50
2018-05-18T22:58:38.769Z,93.80
2018-05-18T23:01:05.037Z,94.00
2018-05-18T23:03:31.260Z,94.00
2018-05-18T23:05:57.506Z,94.00
2018-05-18T23:08:23.734Z,94.10
2018-05-18T23:10:49.998Z,94.20
2018-05-18T23:13:16.250Z,94.30
2018-05-18T23:15:42.476Z,94.60
2018-05-18T23:18:08.717Z,94.90
2018-05-18T23:20:34.950Z,95.10
2018-05-18T23:23:01.187Z,95.20
2018-05-18T23:25:27.420Z,95.30
2018-05-18T23:27:53.654Z,95.30
2018-05-18T23:30:19.885Z,95.50
2018-05-18T23:32:46.108Z,95.60
2018-05-18T23:35:13.081Z,95.70
2018-05-18T23:37:39.317Z,95.70
2018-05-18T23:40:06.299Z,95.90
2018-05-18T23:42:32.532Z,95.90
2018-05-18T23:44:58.767Z,95.90
2018-05-18T23:47:31.949Z,96.00
2018-05-18T23:49:59.084Z,96.00
2018-05-18T23:52:25.317Z,96.00
2018-05-18T23:54:51.543Z,96.20
2018-05-18T23:57:17.754Z,96.60
2018-05-18T23:59:44.052Z,96.80
